createdAt,value
2023-01-29T00:02:10.082Z,22.37
2023-01-29T00:04:40.893Z,21.60
2023-01-29T00:07:11.718Z,22.90
2023-01-29T00:09:42.471Z,22.60
2023-01-29T00:12:13.338Z,19.48
2023-01-29T00:14:44.033Z,19.55
2023-01-29T00:17:14.776Z,20.35
2023-01-29T00:19:45.551Z,20.95
2023-01-29T00:22:16.220Z,20.68
2023-01-29T00:24:46.918Z,20.08
2023-01-29T00:27:17.661Z,21.50
2023-01-29T00:29:49.832Z,21.07
2023-01-29T00:32:20.665Z,19.32
2023-01-29T00:34:51.470Z,21.35
2023-01-29T00:37:22.255Z,21.55
2023-01-29T00:39:52.965Z,21.77
2023-01-29T00:42:41.584Z,21.17
2023-01-29T00:45:13.305Z,21.87
2023-01-29T00:47:44.184Z,21.62
2023-01-29T00:50:21.340Z,20.50
2023-01-29T00:55:24.785Z,20.62
2023-01-29T00:57:55.764Z,21.62
2023-01-29T01:00:26.970Z,22.27
2023-01-29T01:03:10.019Z,20.02
2023-01-29T01:05:40.669Z,21.68
2023-01-29T01:08:29.592Z,24.02
2023-01-29T01:11:09.530Z,20.37
2023-01-29T01:13:40.263Z,20.95
2023-01-29T01:16:19.689Z,20.12
2023-01-29T01:18:53.934Z,21.33
2023-01-29T01:21:24.657Z,22.27
2023-01-29T01:23:55.376Z,18.57
2023-01-29T01:26:26.404Z,19.62
2023-01-29T01:29:01.684Z,18.50
2023-01-29T01:31:37.640Z,18.50
2023-01-29T01:34:08.509Z,18.02
2023-01-29T01:36:39.199Z,18.82
2023-01-29T01:39:14.092Z,18.70
2023-01-29T01:41:44.913Z,18.05
2023-01-29T01:44:52.465Z,19.12
2023-01-29T01:47:28.204Z,18.25
2023-01-29T01:50:03.199Z,17.65
2023-01-29T01:52:35.311Z,19.07
2023-01-29T01:55:07.293Z,20.30
2023-01-29T01:57:38.664Z,18.27
2023-01-29T02:00:12.232Z,17.85
2023-01-29T02:03:02.938Z,18.75
2023-01-29T02:05:55.960Z,17.10
2023-01-29T02:09:04.699Z,19.05
2023-01-29T02:11:35.578Z,19.02
2023-01-29T02:14:06.448Z,19.37
2023-01-29T02:20:19.732Z,19.45
2023-01-29T02:23:15.318Z,18.40
2023-01-29T02:25:54.406Z,17.65
2023-01-29T02:28:27.519Z,17.82
2023-01-29T02:31:29.329Z,17.07
2023-01-29T02:34:05.364Z,16.05
2023-01-29T02:36:50.566Z,17.15
2023-01-29T02:39:26.109Z,15.90
2023-01-29T02:42:19.267Z,16.02
2023-01-29T02:45:04.777Z,15.78
2023-01-29T02:47:41.178Z,15.35
2023-01-29T02:50:17.921Z,15.08
2023-01-29T02:52:55.276Z,15.55
2023-01-29T02:58:22.073Z,15.23
2023-01-29T03:00:55.657Z,15.05
2023-01-29T03:03:44.092Z,15.23
2023-01-29T03:06:21.564Z,14.95
2023-01-29T03:09:00.369Z,15.70
2023-01-29T03:11:33.669Z,13.53
2023-01-29T03:14:29.535Z,15.35
2023-01-29T03:17:00.775Z,16.03
2023-01-29T03:19:42.831Z,16.40
2023-01-29T03:22:18.618Z,15.78
2023-01-29T03:25:14.852Z,15.75
2023-01-29T03:28:05.728Z,14.53
2023-01-29T03:30:56.626Z,15.40
2023-01-29T03:33:28.914Z,15.43
2023-01-29T03:36:11.215Z,13.90
2023-01-29T03:38:42.123Z,15.90
2023-01-29T03:41:18.101Z,14.53
2023-01-29T03:43:53.865Z,14.40
2023-01-29T03:46:36.996Z,13.83
2023-01-29T03:49:13.305Z,14.40
2023-01-29T03:51:55.323Z,15.03
2023-01-29T03:54:40.481Z,14.18
2023-01-29T03:57:19.405Z,14.05
2023-01-29T04:00:18.083Z,13.50
2023-01-29T04:03:17.290Z,13.62
2023-01-29T04:06:03.433Z,14.60
2023-01-29T04:08:36.826Z,13.85
2023-01-29T04:11:10.072Z,14.23
2023-01-29T04:13:42.549Z,13.95
2023-01-29T04:16:15.806Z,13.90
2023-01-29T04:18:49.335Z,13.60
2023-01-29T04:21:21.210Z,14.43
2023-01-29T04:23:51.933Z,13.43
2023-01-29T04:26:31.447Z,13.53
2023-01-29T04:29:13.656Z,14.23
2023-01-29T04:31:50.077Z,13.43
2023-01-29T04:34:52.756Z,14.30
2023-01-29T04:37:40.765Z,13.70
2023-01-29T04:40:33.189Z,12.70
2023-01-29T04:43:27.579Z,13.22
2023-01-29T04:46:24.853Z,13.53
2023-01-29T04:49:09.796Z,13.75
2023-01-29T04:51:51.971Z,12.28
2023-01-29T04:54:28.141Z,13.38
2023-01-29T04:57:01.354Z,12.90
2023-01-29T04:59:37.434Z,12.85
2023-01-29T05:02:10.858Z,13.23
2023-01-29T05:04:43.877Z,12.80
2023-01-29T05:07:17.420Z,12.18
2023-01-29T05:09:49.315Z,13.08
2023-01-29T05:12:20.814Z,12.43
2023-01-29T05:14:53.508Z,11.80
2023-01-29T05:17:24.394Z,13.25
2023-01-29T05:19:55.184Z,13.20
2023-01-29T05:22:28.435Z,13.08
2023-01-29T05:24:58.581Z,13.05
2023-01-29T05:27:54.811Z,12.78
2023-01-29T05:30:25.490Z,12.23
2023-01-29T05:32:56.158Z,12.28
2023-01-29T05:35:27.044Z,12.47
2023-01-29T05:37:58.908Z,12.43
2023-01-29T05:40:29.939Z,12.33
2023-01-29T05:43:00.637Z,11.93
2023-01-29T05:45:31.466Z,12.82
2023-01-29T05:48:02.678Z,11.83
2023-01-29T05:50:33.545Z,13.08
2023-01-29T05:53:05.021Z,12.25
2023-01-29T05:55:35.704Z,13.18
2023-01-29T05:58:07.784Z,12.73
2023-01-29T06:00:38.786Z,13.13
2023-01-29T06:03:09.873Z,12.82
2023-01-29T06:05:44.095Z,13.10
2023-01-29T06:08:14.789Z,12.90
2023-01-29T06:10:47.676Z,12.35
2023-01-29T06:13:17.773Z,12.68
2023-01-29T06:15:49.048Z,11.90
2023-01-29T06:18:22.491Z,12.63
2023-01-29T06:20:53.272Z,12.05
2023-01-29T06:23:23.948Z,12.85
2023-01-29T06:25:54.622Z,12.63
2023-01-29T06:28:25.435Z,12.80
2023-01-29T06:30:58.262Z,12.30
2023-01-29T06:33:29.943Z,12.47
2023-01-29T06:36:06.677Z,12.85
2023-01-29T06:38:39.280Z,12.55
2023-01-29T06:41:14.360Z,13.05
2023-01-29T06:43:47.010Z,12.35
2023-01-29T06:46:18.239Z,12.05
2023-01-29T06:48:48.929Z,11.78
2023-01-29T06:51:21.554Z,13.70
2023-01-29T06:53:54.220Z,10.93
2023-01-29T06:56:25.262Z,12.13
2023-01-29T06:58:57.793Z,11.60
2023-01-29T07:01:36.138Z,11.55
2023-01-29T07:04:00.549Z,11.53
2023-01-29T07:06:32.164Z,11.15
2023-01-29T07:09:05.342Z,11.50
2023-01-29T07:11:39.003Z,12.20
2023-01-29T07:14:10.002Z,11.33
2023-01-29T07:16:40.683Z,12.10
2023-01-29T07:19:11.373Z,11.60
2023-01-29T07:21:42.047Z,11.28
2023-01-29T07:24:12.797Z,11.83
2023-01-29T07:26:43.584Z,11.85
2023-01-29T07:29:14.483Z,12.75
2023-01-29T07:31:45.283Z,12.23
2023-01-29T07:34:16.133Z,12.40
2023-01-29T07:36:46.820Z,11.60
2023-01-29T07:39:17.677Z,11.78
2023-01-29T07:41:50.201Z,12.10
2023-01-29T07:44:20.878Z,12.05
2023-01-29T07:46:51.671Z,12.35
2023-01-29T07:49:22.771Z,12.60
2023-01-29T07:51:53.455Z,12.78
2023-01-29T07:54:24.366Z,12.45
2023-01-29T07:56:55.312Z,12.13
2023-01-29T07:59:26.107Z,12.60
2023-01-29T08:01:57.037Z,13.93
2023-01-29T08:04:27.920Z,13.15
2023-01-29T08:06:58.813Z,11.90
2023-01-29T08:09:29.603Z,13.58
2023-01-29T08:12:03.444Z,12.90
2023-01-29T08:14:35.097Z,12.07
2023-01-29T08:17:05.835Z,13.10
2023-01-29T08:19:36.544Z,13.28
2023-01-29T08:22:07.992Z,13.00
2023-01-29T08:24:53.322Z,12.95
2023-01-29T08:27:11.311Z,13.68
2023-01-29T08:29:42.096Z,12.43
2023-01-29T08:32:13.168Z,12.25
2023-01-29T08:34:43.830Z,11.90
2023-01-29T08:37:14.574Z,12.30
2023-01-29T08:39:45.265Z,12.88
2023-01-29T08:42:16.058Z,12.10
2023-01-29T08:44:46.734Z,12.13
2023-01-29T08:47:17.496Z,12.15
2023-01-29T08:49:49.765Z,11.60
2023-01-29T08:52:20.422Z,12.00
2023-01-29T08:54:51.135Z,12.07
2023-01-29T08:57:21.836Z,11.60
2023-01-29T08:59:52.613Z,10.80
2023-01-29T09:02:23.377Z,12.15
2023-01-29T09:04:54.071Z,12.23
2023-01-29T09:07:24.941Z,11.20
2023-01-29T09:09:56.631Z,11.55
2023-01-29T09:12:27.620Z,11.43
2023-01-29T09:14:58.432Z,11.33
2023-01-29T09:17:29.096Z,12.28
2023-01-29T09:19:59.909Z,13.50
2023-01-29T09:22:30.934Z,11.90
2023-01-29T09:25:01.634Z,11.33
2023-01-29T09:27:32.509Z,12.88
2023-01-29T09:30:03.481Z,11.30
2023-01-29T09:32:53.576Z,12.30
2023-01-29T09:35:07.162Z,11.65
2023-01-29T09:37:38.095Z,12.37
2023-01-29T09:40:10.178Z,11.97
2023-01-29T09:42:49.667Z,12.65
2023-01-29T09:45:32.298Z,12.82
2023-01-29T09:48:06.928Z,11.00
2023-01-29T09:50:49.313Z,12.20
2023-01-29T09:53:25.540Z,11.93
2023-01-29T09:56:01.546Z,11.73
2023-01-29T09:58:34.786Z,11.87
2023-01-29T10:01:44.393Z,11.80
2023-01-29T10:04:38.529Z,12.98
2023-01-29T10:07:39.093Z,12.13
2023-01-29T10:10:12.615Z,11.95
2023-01-29T10:13:14.511Z,11.78
2023-01-29T10:16:10.336Z,11.88
2023-01-29T10:18:52.546Z,11.97
2023-01-29T10:21:46.609Z,12.55
2023-01-29T10:24:22.586Z,12.03
2023-01-29T10:26:54.818Z,12.93
2023-01-29T10:29:26.351Z,12.13
2023-01-29T10:32:00.744Z,13.13
2023-01-29T10:34:34.078Z,12.75
2023-01-29T10:37:06.341Z,12.82
2023-01-29T10:39:37.501Z,13.78
2023-01-29T10:42:33.159Z,13.20
2023-01-29T10:45:08.897Z,14.17
2023-01-29T10:47:57.023Z,12.93
2023-01-29T10:50:48.131Z,13.03
2023-01-29T10:53:42.674Z,12.63
2023-01-29T10:56:32.464Z,13.05
2023-01-29T10:59:06.537Z,12.88
2023-01-29T11:01:37.307Z,13.58
2023-01-29T11:04:10.571Z,13.85
2023-01-29T11:06:41.722Z,13.40
2023-01-29T11:09:20.843Z,12.60
2023-01-29T11:11:55.996Z,13.50
2023-01-29T11:14:29.205Z,14.05
2023-01-29T11:17:00.153Z,14.78
2023-01-29T11:19:42.703Z,14.38
2023-01-29T11:22:18.864Z,13.83
2023-01-29T11:24:51.228Z,13.70
2023-01-29T11:27:30.891Z,14.33
2023-01-29T11:30:01.981Z,13.05
2023-01-29T11:32:35.416Z,13.83
2023-01-29T11:35:20.414Z,13.88
2023-01-29T11:37:52.723Z,12.70
2023-01-29T11:40:26.060Z,14.35
2023-01-29T11:42:56.893Z,14.73
2023-01-29T11:45:33.768Z,14.28
2023-01-29T11:48:04.930Z,14.20
2023-01-29T11:50:48.615Z,15.03
2023-01-29T11:53:43.465Z,15.95
2023-01-29T11:56:26.940Z,16.97
2023-01-29T11:58:59.260Z,16.93
2023-01-29T12:01:35.526Z,16.80
2023-01-29T12:04:19.067Z,17.45
2023-01-29T12:06:53.853Z,18.12
2023-01-29T12:09:31.128Z,19.60
2023-01-29T12:14:57.714Z,20.32
2023-01-29T12:17:36.164Z,21.33
2023-01-29T12:20:21.085Z,20.82
2023-01-29T12:23:01.265Z,20.23
2023-01-29T12:25:39.865Z,21.60
2023-01-29T12:28:25.468Z,20.48
2023-01-29T12:31:16.912Z,20.45
2023-01-29T12:34:02.060Z,22.22
2023-01-29T12:36:41.067Z,22.10
2023-01-29T12:39:14.391Z,21.93
2023-01-29T12:41:47.661Z,22.40
2023-01-29T12:44:21.291Z,21.60
2023-01-29T12:46:57.332Z,22.67
2023-01-29T12:49:36.602Z,23.33
2023-01-29T12:52:27.963Z,24.95
2023-01-29T12:55:04.193Z,24.37
2023-01-29T12:57:52.624Z,24.43
2023-01-29T13:00:38.178Z,23.35
2023-01-29T13:03:26.209Z,22.42
2023-01-29T13:05:59.487Z,23.02
2023-01-29T13:08:41.561Z,24.32
2023-01-29T13:11:17.439Z,23.73
2023-01-29T13:14:09.071Z,23.27
2023-01-29T13:16:42.478Z,24.90
2023-01-29T13:19:23.029Z,28.60
2023-01-29T13:22:01.113Z,34.13
2023-01-29T13:24:40.241Z,31.48
2023-01-29T13:27:13.584Z,27.25
2023-01-29T13:29:45.706Z,24.95
2023-01-29T13:32:18.949Z,23.98
2023-01-29T13:34:55.022Z,24.92
2023-01-29T13:37:30.973Z,26.37
2023-01-29T13:40:03.793Z,26.37
2023-01-29T13:42:51.840Z,24.92
2023-01-29T13:45:25.008Z,26.33
2023-01-29T13:47:56.487Z,26.00
2023-01-29T13:50:35.859Z,26.62
2023-01-29T13:53:09.339Z,25.00
2023-01-29T13:55:41.747Z,25.70
2023-01-29T13:58:17.993Z,24.85
2023-01-29T14:00:51.208Z,24.77
2023-01-29T14:03:29.995Z,24.77
2023-01-29T14:06:03.471Z,24.85
2023-01-29T14:08:42.615Z,24.02
2023-01-29T14:11:19.117Z,23.57
2023-01-29T14:13:52.999Z,24.85
2023-01-29T14:16:26.368Z,25.95
2023-01-29T14:19:04.942Z,23.67
2023-01-29T14:21:40.845Z,24.92
2023-01-29T14:24:23.440Z,25.97
2023-01-29T14:26:58.353Z,25.45
2023-01-29T14:29:35.541Z,25.17
2023-01-29T14:32:29.256Z,24.63
2023-01-29T14:35:05.218Z,24.95
2023-01-29T14:37:41.218Z,25.27
2023-01-29T14:40:25.319Z,25.62
2023-01-29T14:43:15.069Z,25.20
2023-01-29T14:45:46.288Z,26.52
2023-01-29T14:48:40.489Z,24.32
2023-01-29T14:51:19.916Z,24.55
2023-01-29T14:53:56.250Z,23.35
2023-01-29T14:56:38.365Z,23.52
2023-01-29T14:59:17.772Z,23.45
2023-01-29T15:01:51.604Z,22.17
2023-01-29T15:04:26.193Z,21.97
2023-01-29T15:07:12.891Z,21.80
2023-01-29T15:10:18.937Z,21.17
2023-01-29T15:12:50.114Z,20.48
2023-01-29T15:15:33.714Z,20.55
2023-01-29T15:18:27.893Z,22.02
2023-01-29T15:21:15.673Z,20.45
2023-01-29T15:23:52.854Z,19.62
2023-01-29T15:26:27.366Z,18.87
2023-01-29T15:29:04.853Z,19.37
2023-01-29T15:31:33.021Z,19.20
2023-01-29T15:34:06.506Z,19.15
2023-01-29T15:36:40.287Z,19.07
2023-01-29T15:39:19.289Z,20.05
2023-01-29T15:41:52.032Z,18.80
2023-01-29T15:44:24.812Z,18.70
2023-01-29T15:46:58.111Z,19.00
2023-01-29T15:49:40.295Z,18.55
2023-01-29T15:52:25.298Z,18.65
2023-01-29T15:54:57.470Z,19.70
2023-01-29T15:57:30.768Z,17.70
2023-01-29T16:00:02.060Z,18.35
2023-01-29T16:02:39.057Z,18.80
2023-01-29T16:07:41.645Z,21.15
2023-01-29T16:10:16.743Z,20.23
2023-01-29T16:12:52.211Z,18.30
2023-01-29T16:15:41.341Z,19.50
2023-01-29T16:18:29.275Z,19.12
2023-01-29T16:21:02.516Z,19.07
2023-01-29T16:23:36.022Z,18.80
2023-01-29T16:26:12.479Z,18.27
2023-01-29T16:28:45.204Z,18.67
2023-01-29T16:31:17.851Z,18.20
2023-01-29T16:33:50.697Z,18.62
2023-01-29T16:36:29.269Z,18.32
2023-01-29T16:39:05.581Z,18.92
2023-01-29T16:41:39.283Z,17.80
2023-01-29T16:44:27.837Z,18.77
2023-01-29T16:46:58.629Z,18.20
2023-01-29T16:49:34.440Z,18.23
2023-01-29T16:52:24.236Z,16.10
2023-01-29T16:54:56.499Z,16.17
2023-01-29T16:57:34.182Z,17.10
2023-01-29T17:00:08.865Z,17.05
2023-01-29T17:02:44.047Z,16.87
2023-01-29T17:05:17.463Z,16.40
2023-01-29T17:07:52.940Z,16.05
2023-01-29T17:10:32.746Z,15.90
2023-01-29T17:13:11.407Z,16.23
2023-01-29T17:15:47.762Z,16.05
2023-01-29T17:18:21.212Z,17.20
2023-01-29T17:20:55.405Z,17.23
2023-01-29T17:23:26.579Z,17.75
2023-01-29T17:25:57.516Z,18.12
2023-01-29T17:28:28.497Z,16.85
2023-01-29T17:31:06.324Z,17.90
2023-01-29T17:33:31.400Z,18.45
2023-01-29T17:36:02.086Z,18.10
2023-01-29T17:38:33.007Z,17.45
2023-01-29T17:41:06.316Z,18.15
2023-01-29T17:43:37.998Z,19.23
2023-01-29T17:46:10.264Z,19.67
2023-01-29T17:48:41.208Z,19.05
2023-01-29T17:51:17.511Z,19.57
2023-01-29T17:53:48.501Z,19.98
2023-01-29T17:56:31.730Z,19.37
2023-01-29T17:59:02.937Z,19.85
2023-01-29T18:01:33.666Z,20.30
2023-01-29T18:04:04.448Z,19.90
2023-01-29T18:06:35.299Z,19.80
2023-01-29T18:09:07.649Z,20.60
2023-01-29T18:11:38.784Z,20.90
2023-01-29T18:14:13.910Z,20.17
2023-01-29T18:16:43.137Z,21.07
2023-01-29T18:19:26.821Z,21.70
2023-01-29T18:21:58.933Z,20.15
2023-01-29T18:24:29.612Z,21.33
2023-01-29T18:27:00.302Z,22.60
2023-01-29T18:29:31.417Z,21.75
2023-01-29T18:32:02.329Z,23.38
2023-01-29T18:34:33.281Z,22.62
2023-01-29T18:37:04.244Z,22.58
2023-01-29T18:39:34.963Z,21.77
2023-01-29T18:42:06.732Z,22.80
2023-01-29T18:44:37.963Z,23.40
2023-01-29T18:47:08.827Z,22.60
2023-01-29T18:49:40.382Z,22.80
2023-01-29T18:52:11.511Z,22.82
2023-01-29T18:54:42.759Z,23.15
2023-01-29T18:58:26.372Z,22.75
2023-01-29T18:59:45.500Z,21.15
2023-01-29T19:02:18.169Z,20.25
2023-01-29T19:04:49.592Z,19.23
2023-01-29T19:07:21.488Z,18.55
2023-01-29T19:09:52.271Z,19.48
2023-01-29T19:12:23.720Z,18.27
2023-01-29T19:14:54.571Z,18.07
2023-01-29T19:17:25.409Z,17.52
2023-01-29T19:19:57.580Z,18.42
2023-01-29T19:22:28.426Z,18.85
2023-01-29T19:25:02.374Z,19.12
2023-01-29T19:27:33.192Z,20.65
2023-01-29T19:30:05.265Z,20.85
2023-01-29T19:32:36.399Z,22.15
2023-01-29T19:35:07.658Z,23.15
2023-01-29T19:37:38.457Z,23.38
2023-01-29T19:40:10.217Z,21.37
2023-01-29T19:42:40.961Z,21.95
2023-01-29T19:45:12.489Z,21.68
2023-01-29T19:47:44.752Z,21.70
2023-01-29T19:50:15.443Z,22.00
2023-01-29T19:52:51.475Z,21.10
2023-01-29T19:55:19.259Z,22.22
2023-01-29T19:57:50.506Z,21.77
2023-01-29T20:00:22.527Z,19.50
2023-01-29T20:02:53.335Z,21.52
2023-01-29T20:05:25.109Z,20.43
2023-01-29T20:07:55.981Z,20.35
2023-01-29T20:10:26.638Z,21.20
2023-01-29T20:12:57.501Z,20.05
2023-01-29T20:15:28.310Z,20.62
2023-01-29T20:17:59.981Z,20.20
2023-01-29T20:20:31.206Z,21.62
2023-01-29T20:23:03.311Z,22.65
2023-01-29T20:25:34.015Z,21.75
2023-01-29T20:28:05.988Z,22.87
2023-01-29T20:30:37.675Z,22.77
2023-01-29T20:33:09.387Z,22.07
2023-01-29T20:35:40.630Z,22.50
2023-01-29T20:38:11.307Z,23.47
2023-01-29T20:40:42.009Z,22.22
2023-01-29T20:43:12.911Z,20.23
2023-01-29T20:45:43.779Z,20.05
2023-01-29T20:48:14.590Z,22.15
2023-01-29T20:50:45.809Z,22.65
2023-01-29T20:53:19.563Z,22.40
2023-01-29T20:55:50.658Z,21.20
2023-01-29T20:58:21.882Z,19.82
2023-01-29T21:00:52.930Z,21.07
2023-01-29T21:03:23.782Z,20.02
2023-01-29T21:05:57.380Z,21.07
2023-01-29T21:08:28.153Z,20.08
2023-01-29T21:10:59.014Z,20.25
2023-01-29T21:13:29.715Z,19.60
2023-01-29T21:16:00.993Z,21.02
2023-01-29T21:18:33.380Z,18.25
2023-01-29T21:21:04.085Z,17.98
2023-01-29T21:23:34.904Z,19.27
2023-01-29T21:26:09.810Z,19.77
2023-01-29T21:28:40.708Z,19.55
2023-01-29T21:31:13.166Z,19.95
2023-01-29T21:33:44.241Z,19.60
2023-01-29T21:36:15.465Z,20.17
2023-01-29T21:38:46.245Z,18.85
2023-01-29T21:41:17.096Z,17.12
2023-01-29T21:43:48.138Z,17.30
2023-01-29T21:46:20.945Z,16.57
2023-01-29T21:48:51.703Z,17.23
2023-01-29T21:51:22.384Z,16.65
2023-01-29T21:53:54.054Z,17.67
2023-01-29T21:56:24.998Z,17.20
2023-01-29T21:59:04.233Z,16.77
2023-01-29T22:01:37.571Z,16.75
2023-01-29T22:04:08.708Z,17.35
2023-01-29T22:06:39.558Z,17.02
2023-01-29T22:09:10.346Z,17.37
2023-01-29T22:11:42.703Z,16.75
2023-01-29T22:14:13.491Z,17.82
2023-01-29T22:16:44.264Z,17.77
2023-01-29T22:19:15.708Z,19.75
2023-01-29T22:21:51.969Z,21.30
2023-01-29T22:24:23.570Z,23.20
2023-01-29T22:26:54.337Z,24.25
2023-01-29T22:29:25.045Z,25.05
2023-01-29T22:31:57.251Z,22.95
2023-01-29T22:34:28.484Z,21.42
2023-01-29T22:36:59.171Z,20.95
2023-01-29T22:39:29.835Z,20.60
2023-01-29T22:42:00.801Z,22.55
2023-01-29T22:44:32.741Z,22.62
2023-01-29T22:47:06.481Z,22.45
2023-01-29T22:49:37.263Z,23.25
2023-01-29T22:52:14.836Z,24.18
2023-01-29T22:54:49.876Z,23.70
2023-01-29T22:57:20.943Z,23.87
2023-01-29T22:59:51.645Z,21.40
2023-01-29T23:02:22.605Z,21.77
2023-01-29T23:04:54.535Z,23.15
2023-01-29T23:07:25.445Z,23.65
2023-01-29T23:09:56.143Z,23.22
2023-01-29T23:12:26.904Z,25.62
2023-01-29T23:14:57.630Z,24.25
2023-01-29T23:17:28.375Z,26.60
2023-01-29T23:19:59.054Z,26.05
2023-01-29T23:22:29.813Z,25.08
2023-01-29T23:25:02.186Z,24.92
2023-01-29T23:27:32.962Z,26.82
2023-01-29T23:30:04.646Z,33.67
2023-01-29T23:32:35.650Z,27.48
2023-01-29T23:35:13.920Z,26.02
2023-01-29T23:37:44.639Z,27.22
2023-01-29T23:40:16.390Z,28.85
2023-01-29T23:42:50.988Z,29.37
2023-01-29T23:45:21.783Z,29.77
2023-01-29T23:47:52.487Z,30.23
2023-01-29T23:50:23.267Z,31.23
2023-01-29T23:52:54.165Z,31.07
2023-01-29T23:55:25.030Z,31.10
2023-01-29T23:57:57.195Z,30.15
